createdAt,value
2022-12-18T00:04:27.065Z,59.13
2022-12-18T00:09:31.373Z,61.47
2022-12-18T00:14:44.466Z,71.01
2022-12-18T00:19:47.894Z,69.32
2022-12-18T00:24:51.833Z,57.44
2022-12-18T00:29:55.428Z,54.70
2022-12-18T00:34:59.157Z,55.94
2022-12-18T00:40:04.308Z,58.19
2022-12-18T00:45:12.617Z,68.28
2022-12-18T00:50:17.296Z,67.33
2022-12-18T00:55:21.116Z,52.68
2022-12-18T01:00:25.140Z,53.48
2022-12-18T01:05:29.785Z,57.32
2022-12-18T01:10:33.511Z,65.48
2022-12-18T01:15:37.369Z,69.21
2022-12-18T01:20:41.470Z,53.47
2022-12-18T01:25:45.289Z,53.71
2022-12-18T01:30:48.811Z,59.98
2022-12-18T01:35:52.542Z,63.37
2022-12-18T01:41:01.670Z,67.84
2022-12-18T01:46:05.563Z,61.13
2022-12-18T01:51:12.732Z,51.97
2022-12-18T02:01:32.255Z,59.32
2022-12-18T02:06:42.818Z,68.96
2022-12-18T02:12:02.104Z,55.79
2022-12-18T02:17:21.502Z,52.09
2022-12-18T02:22:56.763Z,64.80
2022-12-18T02:28:07.849Z,58.22
2022-12-18T02:33:14.561Z,54.10
2022-12-18T02:38:19.260Z,62.63
2022-12-18T02:43:23.231Z,63.84
2022-12-18T02:48:36.435Z,54.88
2022-12-18T02:54:02.434Z,55.86
2022-12-18T02:59:16.740Z,64.84
2022-12-18T03:04:55.650Z,65.30
2022-12-18T03:10:01.760Z,52.49
2022-12-18T03:15:28.781Z,55.87
2022-12-18T03:20:36.660Z,57.09
2022-12-18T03:25:45.645Z,66.13
2022-12-18T03:30:57.401Z,60.86
2022-12-18T03:36:01.951Z,52.66
2022-12-18T03:41:21.209Z,61.92
2022-12-18T03:46:39.653Z,63.26
2022-12-18T03:52:13.808Z,57.05
2022-12-18T03:57:23.144Z,58.50
2022-12-18T04:02:27.264Z,63.43
2022-12-18T04:07:32.159Z,57.47
2022-12-18T04:12:35.755Z,64.50
2022-12-18T04:17:49.285Z,64.21
2022-12-18T04:22:54.761Z,58.00
2022-12-18T04:27:58.584Z,64.34
2022-12-18T04:33:02.426Z,62.88
2022-12-18T04:38:09.635Z,59.55
2022-12-18T04:43:13.628Z,64.26
2022-12-18T04:48:17.673Z,57.68
2022-12-18T04:53:21.397Z,60.86
2022-12-18T04:58:25.121Z,64.44
2022-12-18T05:03:29.096Z,57.64
2022-12-18T05:08:34.738Z,60.82
2022-12-18T05:13:39.688Z,64.79
2022-12-18T05:18:43.836Z,61.80
2022-12-18T05:23:47.725Z,57.15
2022-12-18T05:28:51.354Z,58.02
2022-12-18T05:33:55.481Z,60.95
2022-12-18T05:38:59.310Z,68.39
2022-12-18T05:44:03.261Z,62.82
2022-12-18T05:49:07.280Z,57.50
2022-12-18T05:54:11.061Z,58.83
2022-12-18T05:59:14.912Z,65.72
2022-12-18T06:04:18.750Z,61.74
2022-12-18T06:14:56.703Z,57.85
2022-12-18T06:20:02.301Z,60.48
2022-12-18T06:25:07.405Z,68.89
2022-12-18T06:30:13.637Z,62.90
2022-12-18T06:35:18.155Z,60.43
2022-12-18T06:40:23.004Z,65.22
2022-12-18T06:45:28.312Z,63.99
2022-12-18T06:50:32.599Z,62.19
2022-12-18T06:55:36.396Z,61.20
2022-12-18T07:00:40.279Z,61.26
2022-12-18T07:05:44.056Z,60.50
2022-12-18T07:10:55.795Z,60.21
2022-12-18T07:16:22.611Z,65.48
2022-12-18T07:21:29.128Z,63.52
2022-12-18T07:26:33.263Z,60.91
2022-12-18T07:31:37.135Z,58.96
2022-12-18T07:36:41.296Z,62.60
2022-12-18T07:42:05.403Z,62.46
2022-12-18T07:47:12.189Z,59.42
2022-12-18T07:52:19.263Z,63.15
2022-12-18T07:57:49.579Z,65.93
2022-12-18T08:02:49.666Z,59.56
2022-12-18T08:07:54.819Z,62.93
2022-12-18T08:13:03.121Z,63.12
2022-12-18T08:18:13.893Z,57.26
2022-12-18T08:23:18.515Z,56.07
2022-12-18T08:28:22.767Z,64.60
2022-12-18T08:33:27.521Z,60.08
2022-12-18T08:38:32.963Z,58.61
2022-12-18T08:43:55.842Z,64.53
2022-12-18T08:48:59.862Z,59.93
2022-12-18T08:54:06.351Z,58.87
2022-12-18T08:59:15.906Z,62.38
2022-12-18T09:04:24.064Z,64.11
2022-12-18T09:09:28.382Z,58.55
2022-12-18T09:14:32.301Z,59.99
2022-12-18T09:19:36.339Z,65.09
2022-12-18T09:24:40.770Z,60.86
2022-12-18T09:29:44.694Z,58.55
2022-12-18T09:34:55.245Z,63.14
2022-12-18T09:39:59.826Z,60.17
2022-12-18T09:45:05.475Z,58.83
2022-12-18T09:50:40.709Z,64.25
2022-12-18T09:55:49.093Z,60.65
2022-12-18T10:00:55.320Z,59.52
2022-12-18T10:06:40.417Z,62.97
2022-12-18T10:12:07.941Z,53.99
2022-12-18T10:17:24.440Z,54.49
2022-12-18T10:22:42.471Z,54.54
2022-12-18T10:27:47.550Z,53.37
2022-12-18T10:32:53.044Z,48.79
2022-12-18T10:38:16.279Z,52.36
2022-12-18T10:43:31.968Z,57.05
2022-12-18T10:48:58.431Z,56.64
2022-12-18T10:54:32.453Z,54.50
2022-12-18T10:59:57.126Z,55.92
2022-12-18T11:05:02.169Z,53.42
2022-12-18T11:10:18.537Z,53.50
2022-12-18T11:15:31.938Z,49.70
2022-12-18T11:20:40.405Z,52.21
2022-12-18T11:26:06.533Z,50.18
2022-12-18T11:31:25.601Z,49.49
2022-12-18T11:36:36.175Z,49.31
2022-12-18T11:42:11.596Z,46.70
2022-12-18T11:47:40.064Z,47.33
2022-12-18T11:52:44.192Z,46.09
2022-12-18T11:58:31.901Z,47.95
2022-12-18T12:04:04.957Z,47.15
2022-12-18T12:09:50.746Z,47.57
2022-12-18T12:15:34.528Z,44.69
2022-12-18T12:21:07.740Z,42.72
2022-12-18T12:26:49.898Z,45.44
2022-12-18T12:32:33.083Z,48.01
2022-12-18T12:37:56.369Z,54.41
2022-12-18T12:43:14.356Z,56.43
2022-12-18T12:48:36.770Z,55.83
2022-12-18T12:53:43.033Z,55.67
2022-12-18T12:59:25.025Z,56.16
2022-12-18T13:05:19.354Z,57.02
2022-12-18T13:10:36.754Z,56.96
2022-12-18T13:15:48.342Z,57.44
2022-12-18T13:21:21.974Z,57.75
2022-12-18T13:26:29.185Z,57.89
2022-12-18T13:31:42.643Z,58.83
2022-12-18T13:36:47.864Z,58.61
2022-12-18T13:42:32.508Z,57.66
2022-12-18T13:47:39.476Z,57.64
2022-12-18T13:52:45.043Z,58.39
2022-12-18T13:57:49.742Z,59.20
2022-12-18T14:02:53.777Z,62.55
2022-12-18T14:08:07.210Z,59.10
2022-12-18T14:13:31.127Z,59.89
2022-12-18T14:19:02.726Z,62.81
2022-12-18T14:24:23.792Z,58.92
2022-12-18T14:29:33.136Z,61.67
2022-12-18T14:34:36.861Z,62.45
2022-12-18T14:39:41.370Z,60.59
2022-12-18T14:45:14.294Z,62.22
2022-12-18T14:50:17.334Z,59.11
2022-12-18T14:55:23.992Z,63.74
2022-12-18T15:00:28.875Z,60.33
2022-12-18T15:05:34.633Z,62.20
2022-12-18T15:10:49.456Z,61.01
2022-12-18T15:15:57.792Z,57.99
2022-12-18T15:21:11.695Z,62.47
2022-12-18T15:26:19.895Z,58.79
2022-12-18T15:31:37.204Z,61.34
2022-12-18T15:37:04.776Z,61.64
2022-12-18T15:42:53.587Z,59.16
2022-12-18T15:48:48.426Z,64.63
2022-12-18T15:53:59.696Z,60.26
2022-12-18T15:59:04.704Z,63.04
2022-12-18T16:04:15.001Z,61.87
2022-12-18T16:09:36.742Z,61.68
2022-12-18T16:14:47.319Z,61.82
2022-12-18T16:19:51.785Z,63.19
2022-12-18T16:25:12.546Z,61.55
2022-12-18T16:30:37.895Z,58.94
2022-12-18T16:41:47.514Z,60.41
2022-12-18T16:46:51.232Z,60.84
2022-12-18T16:52:13.053Z,65.60
2022-12-18T16:57:25.331Z,59.81
2022-12-18T17:02:29.709Z,62.42
2022-12-18T17:07:33.621Z,62.57
2022-12-18T17:12:39.453Z,62.01
2022-12-18T17:17:46.022Z,59.22
2022-12-18T17:22:49.862Z,62.93
2022-12-18T17:27:53.721Z,61.65
2022-12-18T17:32:57.628Z,60.45
2022-12-18T17:38:01.620Z,64.59
2022-12-18T17:43:06.291Z,63.16
2022-12-18T17:48:11.239Z,63.07
2022-12-18T17:53:15.425Z,62.47
2022-12-18T17:58:19.091Z,60.27
2022-12-18T18:03:25.079Z,61.18
2022-12-18T18:08:32.828Z,63.58
2022-12-18T18:13:56.534Z,62.86
2022-12-18T18:19:09.036Z,62.80
2022-12-18T18:24:16.583Z,60.38
2022-12-18T18:29:26.710Z,62.77
2022-12-18T18:34:35.795Z,60.62
2022-12-18T18:39:41.403Z,58.48
2022-12-18T18:44:49.043Z,64.63
2022-12-18T18:49:54.102Z,58.53
2022-12-18T18:55:12.961Z,63.18
2022-12-18T19:00:19.123Z,60.41
2022-12-18T19:05:23.475Z,59.22
2022-12-18T19:10:28.717Z,63.72
2022-12-18T19:15:34.511Z,60.41
2022-12-18T19:20:38.741Z,63.63
2022-12-18T19:25:50.786Z,58.34
2022-12-18T19:31:08.890Z,59.15
2022-12-18T19:36:23.676Z,65.65
2022-12-18T19:41:32.824Z,63.92
2022-12-18T19:46:40.677Z,53.44
2022-12-18T19:51:46.501Z,61.04
2022-12-18T19:56:50.568Z,63.44
2022-12-18T20:01:54.977Z,58.30
2022-12-18T20:06:59.044Z,64.46
2022-12-18T20:12:04.675Z,60.18
2022-12-18T20:17:08.677Z,60.32
2022-12-18T20:22:14.164Z,65.33
2022-12-18T20:27:19.588Z,58.99
2022-12-18T20:32:23.954Z,62.50
2022-12-18T20:37:28.036Z,63.93
2022-12-18T20:42:35.706Z,56.98
2022-12-18T20:47:40.059Z,59.45
2022-12-18T20:52:45.494Z,64.67
2022-12-18T20:57:49.901Z,62.94
2022-12-18T21:02:54.034Z,56.41
2022-12-18T21:07:58.299Z,53.93
2022-12-18T21:13:04.565Z,51.59
2022-12-18T21:18:10.717Z,52.11
2022-12-18T21:23:16.270Z,53.49
2022-12-18T21:28:21.343Z,51.67
2022-12-18T21:33:24.960Z,53.73
2022-12-18T21:38:28.779Z,51.13
2022-12-18T21:44:01.995Z,49.45
2022-12-18T21:49:08.865Z,50.27
2022-12-18T21:54:13.026Z,50.54
2022-12-18T21:59:28.422Z,50.33
2022-12-18T22:04:32.077Z,49.09
2022-12-18T22:09:36.962Z,50.02
2022-12-18T22:14:40.539Z,51.61
2022-12-18T22:19:44.083Z,52.59
2022-12-18T22:24:47.653Z,50.71
2022-12-18T22:30:06.565Z,49.76
2022-12-18T22:35:15.579Z,50.61
2022-12-18T22:40:29.637Z,50.83
2022-12-18T22:45:34.066Z,50.42
2022-12-18T22:50:41.897Z,50.64
2022-12-18T22:55:45.625Z,49.66
2022-12-18T23:00:49.183Z,50.09
2022-12-18T23:05:52.862Z,49.69
2022-12-18T23:10:58.423Z,49.66
2022-12-18T23:16:11.404Z,50.14
2022-12-18T23:21:20.089Z,49.81
2022-12-18T23:26:26.013Z,48.74
2022-12-18T23:31:36.111Z,48.42
2022-12-18T23:36:43.555Z,47.41
2022-12-18T23:41:49.847Z,47.64
2022-12-18T23:46:53.776Z,48.27
2022-12-18T23:51:57.699Z,48.70
2022-12-18T23:57:02.292Z,49.20
